sensor_id;sensor_type;location;lat;lon;timestamp;P1;P2;P0
20157;PMS5003;10239;56.820;24.416;2023-08-12T00:00:02;3.00;3.00;2.00
20157;PMS5003;10239;56.820;24.416;2023-08-12T00:02:35;5.50;5.50;3.00
20157;PMS5003;10239;56.820;24.416;2023-08-12T00:05:04;7.50;5.75;3.00
20157;PMS5003;10239;56.820;24.416;2023-08-12T00:07:32;5.00;5.00;3.00
20157;PMS5003;10239;56.820;24.416;2023-08-12T00:10:01;4.50;4.50;2.50
20157;PMS5003;10239;56.820;24.416;2023-08-12T00:12:31;5.50;3.75;3.00
20157;PMS5003;10239;56.820;24.416;2023-08-12T00:15:00;8.00;6.50;3.75
20157;PMS5003;10239;56.820;24.416;2023-08-12T00:17:29;7.00;5.75;3.00
20157;PMS5003;10239;56.820;24.416;2023-08-12T00:19:57;6.50;6.50;3.25
20157;PMS5003;10239;56.820;24.416;2023-08-12T00:22:26;7.00;5.00;2.00
20157;PMS5003;10239;56.820;24.416;2023-08-12T00:24:53;4.25;4.25;2.75
20157;PMS5003;10239;56.820;24.416;2023-08-12T00:27:21;5.00;4.50;3.00
20157;PMS5003;10239;56.820;24.416;2023-08-12T00:29:48;5.00;5.00;2.25
20157;PMS5003;10239;56.820;24.416;2023-08-12T00:32:16;7.75;5.00;3.00
20157;PMS5003;10239;56.820;24.416;2023-08-12T00:34:45;5.25;4.50;3.25
20157;PMS5003;10239;56.820;24.416;2023-08-12T00:37:14;5.50;3.25;2.00
20157;PMS5003;10239;56.820;24.416;2023-08-12T00:39:41;5.00;5.00;2.00
20157;PMS5003;10239;56.820;24.416;2023-08-12T00:42:09;4.50;4.50;2.00
20157;PMS5003;10239;56.820;24.416;2023-08-12T00:44:37;5.00;4.50;2.00
20157;PMS5003;10239;56.820;24.416;2023-08-12T00:47:05;3.25;3.25;2.00
20157;PMS5003;10239;56.820;24.416;2023-08-12T00:49:33;10.75;7.00;3.00
20157;PMS5003;10239;56.820;24.416;2023-08-12T00:52:01;6.00;6.00;4.00
20157;PMS5003;10239;56.820;24.416;2023-08-12T00:54:28;7.50;5.25;3.00
20157;PMS5003;10239;56.820;24.416;2023-08-12T00:56:57;5.00;5.00;3.00
20157;PMS5003;10239;56.820;24.416;2023-08-12T00:59:25;5.25;3.25;2.00
20157;PMS5003;10239;56.820;24.416;2023-08-12T01:01:53;5.00;5.00;3.00
20157;PMS5003;10239;56.820;24.416;2023-08-12T01:04:21;4.25;3.50;1.25
20157;PMS5003;10239;56.820;24.416;2023-08-12T01:06:49;4.25;4.25;3.00
20157;PMS5003;10239;56.820;24.416;2023-08-12T01:09:17;4.00;4.00;3.00
20157;PMS5003;10239;56.820;24.416;2023-08-12T01:12:07;3.75;3.75;2.00
20157;PMS5003;10239;56.820;24.416;2023-08-12T01:17:36;9.25;6.75;3.00
20157;PMS5003;10239;56.820;24.416;2023-08-12T01:20:09;3.25;3.25;2.50
20157;PMS5003;10239;56.820;24.416;2023-08-12T01:22:41;4.50;4.50;3.00
20157;PMS5003;10239;56.820;24.416;2023-08-12T01:25:14;3.75;3.75;2.00
20157;PMS5003;10239;56.820;24.416;2023-08-12T01:27:41;7.25;7.25;4.00
20157;PMS5003;10239;56.820;24.416;2023-08-12T01:30:09;7.75;4.25;3.00
20157;PMS5003;10239;56.820;24.416;2023-08-12T01:38:14;6.50;6.50;3.25
20157;PMS5003;10239;56.820;24.416;2023-08-12T01:40:44;3.75;3.75;2.00
20157;PMS5003;10239;56.820;24.416;2023-08-12T01:43:14;9.75;6.25;4.25
20157;PMS5003;10239;56.820;24.416;2023-08-12T01:45:42;9.00;8.00;3.00
20157;PMS5003;10239;56.820;24.416;2023-08-12T01:48:10;8.00;7.00;3.50
20157;PMS5003;10239;56.820;24.416;2023-08-12T01:50:38;9.00;7.00;3.50
20157;PMS5003;10239;56.820;24.416;2023-08-12T01:53:06;8.75;8.50;4.00
20157;PMS5003;10239;56.820;24.416;2023-08-12T01:55:33;8.00;5.75;3.00
20157;PMS5003;10239;56.820;24.416;2023-08-12T01:58:01;8.00;8.00;5.00
20157;PMS5003;10239;56.820;24.416;2023-08-12T02:00:29;9.50;9.50;4.00
20157;PMS5003;10239;56.820;24.416;2023-08-12T02:02:57;9.25;8.00;4.75
20157;PMS5003;10239;56.820;24.416;2023-08-12T02:05:24;9.00;9.00;4.50
20157;PMS5003;10239;56.820;24.416;2023-08-12T02:07:52;10.75;7.25;4.75
20157;PMS5003;10239;56.820;24.416;2023-08-12T02:10:20;8.75;7.75;4.50
20157;PMS5003;10239;56.820;24.416;2023-08-12T02:12:48;8.00;8.00;5.00
20157;PMS5003;10239;56.820;24.416;2023-08-12T02:15:16;8.25;8.25;5.00
20157;PMS5003;10239;56.820;24.416;2023-08-12T02:17:44;8.00;8.00;5.00
20157;PMS5003;10239;56.820;24.416;2023-08-12T02:20:12;10.00;9.00;4.50
20157;PMS5003;10239;56.820;24.416;2023-08-12T02:22:39;5.50;5.50;2.00
20157;PMS5003;10239;56.820;24.416;2023-08-12T02:25:07;6.00;5.25;3.75
20157;PMS5003;10239;56.820;24.416;2023-08-12T02:27:35;10.25;8.00;3.75
20157;PMS5003;10239;56.820;24.416;2023-08-12T02:30:03;7.00;7.00;3.00
20157;PMS5003;10239;56.820;24.416;2023-08-12T02:32:32;9.25;8.75;3.75
20157;PMS5003;10239;56.820;24.416;2023-08-12T02:34:59;10.50;8.75;4.00
20157;PMS5003;10239;56.820;24.416;2023-08-12T02:37:29;7.75;7.00;3.50
20157;PMS5003;10239;56.820;24.416;2023-08-12T02:39:57;7.75;7.75;3.00
20157;PMS5003;10239;56.820;24.416;2023-08-12T02:42:24;7.75;5.75;2.00
20157;PMS5003;10239;56.820;24.416;2023-08-12T02:44:52;9.00;7.75;3.50
20157;PMS5003;10239;56.820;24.416;2023-08-12T02:47:20;7.25;5.25;2.00
20157;PMS5003;10239;56.820;24.416;2023-08-12T02:49:47;10.75;8.50;4.00
20157;PMS5003;10239;56.820;24.416;2023-08-12T02:52:15;3.75;3.75;3.25
20157;PMS5003;10239;56.820;24.416;2023-08-12T02:54:43;8.00;3.75;1.00
20157;PMS5003;10239;56.820;24.416;2023-08-12T02:57:10;5.75;3.75;2.00
20157;PMS5003;10239;56.820;24.416;2023-08-12T02:59:38;8.75;8.75;4.00
20157;PMS5003;10239;56.820;24.416;2023-08-12T03:02:06;7.75;5.25;3.00
20157;PMS5003;10239;56.820;24.416;2023-08-12T03:04:34;7.75;6.75;3.00
20157;PMS5003;10239;56.820;24.416;2023-08-12T03:07:01;7.50;7.50;3.25
20157;PMS5003;10239;56.820;24.416;2023-08-12T03:09:30;6.25;6.25;3.50
20157;PMS5003;10239;56.820;24.416;2023-08-12T03:11:58;5.75;5.00;3.00
20157;PMS5003;10239;56.820;24.416;2023-08-12T03:14:29;8.00;6.00;3.00
20157;PMS5003;10239;56.820;24.416;2023-08-12T03:16:59;5.50;5.50;3.00
20157;PMS5003;10239;56.820;24.416;2023-08-12T03:19:28;5.50;4.00;2.00
20157;PMS5003;10239;56.820;24.416;2023-08-12T03:21:57;5.00;5.00;3.00
20157;PMS5003;10239;56.820;24.416;2023-08-12T03:24:25;3.25;3.25;2.00
20157;PMS5003;10239;56.820;24.416;2023-08-12T03:26:53;7.50;5.00;3.00
20157;PMS5003;10239;56.820;24.416;2023-08-12T03:29:21;6.25;6.25;3.00
20157;PMS5003;10239;56.820;24.416;2023-08-12T03:31:49;6.50;6.50;3.00
20157;PMS5003;10239;56.820;24.416;2023-08-12T03:34:16;9.75;6.75;3.25
20157;PMS5003;10239;56.820;24.416;2023-08-12T03:36:44;6.00;4.00;2.25
20157;PMS5003;10239;56.820;24.416;2023-08-12T03:39:16;10.75;4.00;2.00
20157;PMS5003;10239;56.820;24.416;2023-08-12T03:41:44;6.25;5.75;3.00
20157;PMS5003;10239;56.820;24.416;2023-08-12T03:44:11;4.00;4.00;2.00
20157;PMS5003;10239;56.820;24.416;2023-08-12T03:46:39;7.00;4.75;2.00
20157;PMS5003;10239;56.820;24.416;2023-08-12T03:49:07;7.75;6.25;2.25
20157;PMS5003;10239;56.820;24.416;2023-08-12T03:51:34;7.50;4.50;2.50
20157;PMS5003;10239;56.820;24.416;2023-08-12T03:54:02;6.25;4.00;2.50
20157;PMS5003;10239;56.820;24.416;2023-08-12T03:56:31;6.00;5.25;2.00
20157;PMS5003;10239;56.820;24.416;2023-08-12T03:59:01;5.50;4.75;2.50
20157;PMS5003;10239;56.820;24.416;2023-08-12T04:01:29;4.25;4.25;3.00
20157;PMS5003;10239;56.820;24.416;2023-08-12T04:03:57;4.75;3.75;3.00
20157;PMS5003;10239;56.820;24.416;2023-08-12T04:06:25;5.25;5.25;2.00
20157;PMS5003;10239;56.820;24.416;2023-08-12T04:08:53;6.50;4.25;2.25
20157;PMS5003;10239;56.820;24.416;2023-08-12T04:11:21;3.00;3.00;2.00
20157;PMS5003;10239;56.820;24.416;2023-08-12T04:13:48;5.00;3.25;2.00
20157;PMS5003;10239;56.820;24.416;2023-08-12T04:16:16;7.00;4.00;2.00
20157;PMS5003;10239;56.820;24.416;2023-08-12T04:18:44;6.75;5.25;2.00
20157;PMS5003;10239;56.820;24.416;2023-08-12T04:21:11;3.00;3.00;2.00
20157;PMS5003;10239;56.820;24.416;2023-08-12T04:23:39;2.50;2.50;2.00
20157;PMS5003;10239;56.820;24.416;2023-08-12T04:26:07;5.00;4.00;2.00
20157;PMS5003;10239;56.820;24.416;2023-08-12T04:28:35;3.50;3.50;2.00
20157;PMS5003;10239;56.820;24.416;2023-08-12T04:31:05;5.25;4.00;1.75
20157;PMS5003;10239;56.820;24.416;2023-08-12T04:33:37;4.75;3.25;2.00
20157;PMS5003;10239;56.820;24.416;2023-08-12T04:36:05;5.25;5.25;3.00
20157;PMS5003;10239;56.820;24.416;2023-08-12T04:38:33;3.00;3.00;2.00
20157;PMS5003;10239;56.820;24.416;2023-08-12T04:41:05;3.00;3.00;2.00
20157;PMS5003;10239;56.820;24.416;2023-08-12T04:43:34;2.50;2.50;1.00
20157;PMS5003;10239;56.820;24.416;2023-08-12T04:46:02;2.00;2.00;1.00
20157;PMS5003;10239;56.820;24.416;2023-08-12T04:48:32;3.00;1.00;0.00
20157;PMS5003;10239;56.820;24.416;2023-08-12T04:51:00;4.25;4.25;2.00
20157;PMS5003;10239;56.820;24.416;2023-08-12T04:53:29;4.50;3.75;2.00
20157;PMS5003;10239;56.820;24.416;2023-08-12T04:55:57;1.25;1.25;1.25
20157;PMS5003;10239;56.820;24.416;2023-08-12T04:58:26;4.00;2.50;1.50
20157;PMS5003;10239;56.820;24.416;2023-08-12T05:00:53;3.50;3.00;1.50
20157;PMS5003;10239;56.820;24.416;2023-08-12T05:03:21;2.75;2.75;1.00
20157;PMS5003;10239;56.820;24.416;2023-08-12T05:05:51;3.00;3.00;1.00
20157;PMS5003;10239;56.820;24.416;2023-08-12T05:08:23;2.25;2.25;1.00
20157;PMS5003;10239;56.820;24.416;2023-08-12T05:10:51;3.20;0.80;0.40
20157;PMS5003;10239;56.820;24.416;2023-08-12T05:13:20;4.00;2.20;1.80
20157;PMS5003;10239;56.820;24.416;2023-08-12T05:15:51;2.80;2.80;1.00
20157;PMS5003;10239;56.820;24.416;2023-08-12T05:18:18;1.00;1.00;0.40
20157;PMS5003;10239;56.820;24.416;2023-08-12T05:20:55;2.00;2.00;1.00
20157;PMS5003;10239;56.820;24.416;2023-08-12T05:23:27;4.00;3.00;2.00
20157;PMS5003;10239;56.820;24.416;2023-08-12T05:25:57;2.00;2.00;0.00
20157;PMS5003;10239;56.820;24.416;2023-08-12T05:28:32;2.00;2.00;1.00
20157;PMS5003;10239;56.820;24.416;2023-08-12T05:31:07;1.20;1.20;1.00
20157;PMS5003;10239;56.820;24.416;2023-08-12T05:33:34;2.40;1.80;1.00
20157;PMS5003;10239;56.820;24.416;2023-08-12T05:36:02;2.20;2.00;1.00
20157;PMS5003;10239;56.820;24.416;2023-08-12T05:38:30;2.80;2.00;1.00
20157;PMS5003;10239;56.820;24.416;2023-08-12T05:41:01;1.20;1.00;0.00
20157;PMS5003;10239;56.820;24.416;2023-08-12T05:43:34;3.60;2.20;1.00
20157;PMS5003;10239;56.820;24.416;2023-08-12T05:46:18;3.00;1.40;1.00
20157;PMS5003;10239;56.820;24.416;2023-08-12T05:48:52;2.80;2.80;1.00
20157;PMS5003;10239;56.820;24.416;2023-08-12T05:51:46;2.20;1.00;0.80
20157;PMS5003;10239;56.820;24.416;2023-08-12T05:54:15;1.00;1.00;0.40
20157;PMS5003;10239;56.820;24.416;2023-08-12T05:56:43;0.00;0.00;0.00
20157;PMS5003;10239;56.820;24.416;2023-08-12T05:59:11;1.40;1.00;0.60
20157;PMS5003;10239;56.820;24.416;2023-08-12T06:01:39;2.20;1.00;1.00
20157;PMS5003;10239;56.820;24.416;2023-08-12T06:04:07;1.60;0.40;0.40
20157;PMS5003;10239;56.820;24.416;2023-08-12T06:06:36;3.60;2.00;1.00
20157;PMS5003;10239;56.820;24.416;2023-08-12T06:09:06;1.00;1.00;0.00
20157;PMS5003;10239;56.820;24.416;2023-08-12T06:11:33;1.20;1.20;0.00
20157;PMS5003;10239;56.820;24.416;2023-08-12T06:14:03;1.20;1.20;0.00
20157;PMS5003;10239;56.820;24.416;2023-08-12T06:16:31;0.20;0.20;0.00
20157;PMS5003;10239;56.820;24.416;2023-08-12T06:19:00;1.80;1.00;0.20
20157;PMS5003;10239;56.820;24.416;2023-08-12T06:21:34;0.80;0.80;0.00
20157;PMS5003;10239;56.820;24.416;2023-08-12T06:24:01;1.00;1.00;1.00
20157;PMS5003;10239;56.820;24.416;2023-08-12T06:26:29;1.00;1.00;0.20
20157;PMS5003;10239;56.820;24.416;2023-08-12T06:28:57;1.00;1.00;1.00
20157;PMS5003;10239;56.820;24.416;2023-08-12T06:31:26;1.40;1.40;0.60
20157;PMS5003;10239;56.820;24.416;2023-08-12T06:33:54;1.00;1.00;1.00
20157;PMS5003;10239;56.820;24.416;2023-08-12T06:36:22;2.00;2.00;1.00
20157;PMS5003;10239;56.820;24.416;2023-08-12T06:38:51;1.00;1.00;0.80
20157;PMS5003;10239;56.820;24.416;2023-08-12T06:41:20;2.00;2.00;1.00
20157;PMS5003;10239;56.820;24.416;2023-08-12T06:43:48;0.00;0.00;0.00
20157;PMS5003;10239;56.820;24.416;2023-08-12T06:46:16;0.80;0.80;0.00
20157;PMS5003;10239;56.820;24.416;2023-08-12T06:48:44;1.80;1.80;0.60
20157;PMS5003;10239;56.820;24.416;2023-08-12T06:51:15;1.80;1.80;0.40
20157;PMS5003;10239;56.820;24.416;2023-08-12T06:53:45;2.80;2.00;1.40
20157;PMS5003;10239;56.820;24.416;2023-08-12T06:56:13;1.00;1.00;0.20
20157;PMS5003;10239;56.820;24.416;2023-08-12T06:58:40;0.80;0.80;0.00
20157;PMS5003;10239;56.820;24.416;2023-08-12T07:01:08;1.00;1.00;0.00
20157;PMS5003;10239;56.820;24.416;2023-08-12T07:03:39;1.20;1.20;0.00
20157;PMS5003;10239;56.820;24.416;2023-08-12T07:06:07;1.80;1.00;1.00
20157;PMS5003;10239;56.820;24.416;2023-08-12T07:08:35;1.20;1.20;1.00
20157;PMS5003;10239;56.820;24.416;2023-08-12T07:11:03;1.00;1.00;0.00
20157;PMS5003;10239;56.820;24.416;2023-08-12T07:13:31;0.60;0.60;0.00
20157;PMS5003;10239;56.820;24.416;2023-08-12T07:16:00;2.80;1.00;0.80
20157;PMS5003;10239;56.820;24.416;2023-08-12T07:18:28;1.00;1.00;0.20
20157;PMS5003;10239;56.820;24.416;2023-08-12T07:20:55;1.80;1.80;0.00
20157;PMS5003;10239;56.820;24.416;2023-08-12T07:23:25;1.00;1.00;0.20
20157;PMS5003;10239;56.820;24.416;2023-08-12T07:25:52;1.00;1.00;0.80
20157;PMS5003;10239;56.820;24.416;2023-08-12T07:28:20;2.00;2.00;1.00
20157;PMS5003;10239;56.820;24.416;2023-08-12T07:30:48;1.00;0.20;0.00
20157;PMS5003;10239;56.820;24.416;2023-08-12T07:33:16;0.20;0.20;0.00
20157;PMS5003;10239;56.820;24.416;2023-08-12T07:35:43;1.20;1.20;1.00
20157;PMS5003;10239;56.820;24.416;2023-08-12T07:38:11;1.00;1.00;0.40
20157;PMS5003;10239;56.820;24.416;2023-08-12T07:40:38;0.20;0.20;0.00
20157;PMS5003;10239;56.820;24.416;2023-08-12T07:43:07;1.00;1.00;0.00
20157;PMS5003;10239;56.820;24.416;2023-08-12T07:45:35;1.00;1.00;0.00
20157;PMS5003;10239;56.820;24.416;2023-08-12T07:48:03;0.80;0.80;0.00
20157;PMS5003;10239;56.820;24.416;2023-08-12T07:50:31;0.00;0.00;0.00
20157;PMS5003;10239;56.820;24.416;2023-08-12T07:52:59;0.40;0.40;0.00
20157;PMS5003;10239;56.820;24.416;2023-08-12T07:55:27;0.60;0.60;0.00
20157;PMS5003;10239;56.820;24.416;2023-08-12T07:57:56;0.00;0.00;0.00
20157;PMS5003;10239;56.820;24.416;2023-08-12T08:00:24;2.60;1.00;0.80
20157;PMS5003;10239;56.820;24.416;2023-08-12T08:02:52;0.60;0.60;0.00
20157;PMS5003;10239;56.820;24.416;2023-08-12T08:05:20;1.00;1.00;0.00
20157;PMS5003;10239;56.820;24.416;2023-08-12T08:07:48;1.60;0.20;0.00
20157;PMS5003;10239;56.820;24.416;2023-08-12T08:10:16;3.00;1.20;0.00
20157;PMS5003;10239;56.820;24.416;2023-08-12T08:12:44;0.00;0.00;0.00
20157;PMS5003;10239;56.820;24.416;2023-08-12T08:15:11;1.00;1.00;0.00
20157;PMS5003;10239;56.820;24.416;2023-08-12T08:17:39;1.00;1.00;0.00
20157;PMS5003;10239;56.820;24.416;2023-08-12T08:20:08;1.00;1.00;0.80
20157;PMS5003;10239;56.820;24.416;2023-08-12T08:22:37;0.80;0.80;0.00
20157;PMS5003;10239;56.820;24.416;2023-08-12T08:25:06;0.00;0.00;0.00
20157;PMS5003;10239;56.820;24.416;2023-08-12T08:27:34;2.40;0.80;0.00
20157;PMS5003;10239;56.820;24.416;2023-08-12T08:30:02;1.00;1.00;0.00
20157;PMS5003;10239;56.820;24.416;2023-08-12T08:32:30;1.00;1.00;0.00
20157;PMS5003;10239;56.820;24.416;2023-08-12T08:34:58;1.00;1.00;0.00
20157;PMS5003;10239;56.820;24.416;2023-08-12T08:37:26;0.80;0.80;0.00
20157;PMS5003;10239;56.820;24.416;2023-08-12T08:39:54;0.80;0.80;0.20
20157;PMS5003;10239;56.820;24.416;2023-08-12T08:42:21;0.00;0.00;0.00
20157;PMS5003;10239;56.820;24.416;2023-08-12T08:44:52;1.00;0.00;0.00
20157;PMS5003;10239;56.820;24.416;2023-08-12T08:47:22;1.60;0.40;0.00
20157;PMS5003;10239;56.820;24.416;2023-08-12T08:49:56;1.00;1.00;0.20
20157;PMS5003;10239;56.820;24.416;2023-08-12T08:52:25;1.00;1.00;0.80
20157;PMS5003;10239;56.820;24.416;2023-08-12T08:54:54;1.00;1.00;0.00
20157;PMS5003;10239;56.820;24.416;2023-08-12T08:57:27;0.80;0.80;0.00
20157;PMS5003;10239;56.820;24.416;2023-08-12T09:00:04;0.00;0.00;0.00
20157;PMS5003;10239;56.820;24.416;2023-08-12T09:02:40;2.00;0.40;0.00
20157;PMS5003;10239;56.820;24.416;2023-08-12T09:05:10;1.00;1.00;0.40
20157;PMS5003;10239;56.820;24.416;2023-08-12T09:07:39;0.20;0.20;0.00
20157;PMS5003;10239;56.820;24.416;2023-08-12T09:10:09;1.00;1.00;0.00
20157;PMS5003;10239;56.820;24.416;2023-08-12T09:12:41;2.00;2.00;0.20
20157;PMS5003;10239;56.820;24.416;2023-08-12T09:15:10;0.00;0.00;0.00
20157;PMS5003;10239;56.820;24.416;2023-08-12T09:17:38;1.60;1.00;0.00
20157;PMS5003;10239;56.820;24.416;2023-08-12T09:20:06;1.00;1.00;0.00
20157;PMS5003;10239;56.820;24.416;2023-08-12T09:22:42;1.00;1.00;0.00
20157;PMS5003;10239;56.820;24.416;2023-08-12T09:25:10;2.40;0.20;0.00
20157;PMS5003;10239;56.820;24.416;2023-08-12T09:27:38;0.20;0.20;0.00
20157;PMS5003;10239;56.820;24.416;2023-08-12T09:30:06;1.40;0.40;0.00
20157;PMS5003;10239;56.820;24.416;2023-08-12T09:32:35;0.40;0.40;0.00
20157;PMS5003;10239;56.820;24.416;2023-08-12T09:35:06;0.20;0.20;0.20
20157;PMS5003;10239;56.820;24.416;2023-08-12T09:37:43;1.80;1.80;0.20
20157;PMS5003;10239;56.820;24.416;2023-08-12T09:40:10;1.00;1.00;0.00
20157;PMS5003;10239;56.820;24.416;2023-08-12T09:42:44;1.00;1.00;0.40
20157;PMS5003;10239;56.820;24.416;2023-08-12T09:45:14;0.00;0.00;0.00
20157;PMS5003;10239;56.820;24.416;2023-08-12T09:47:42;3.00;0.80;0.00
20157;PMS5003;10239;56.820;24.416;2023-08-12T09:50:11;1.60;0.80;0.00
20157;PMS5003;10239;56.820;24.416;2023-08-12T09:52:40;0.00;0.00;0.00
20157;PMS5003;10239;56.820;24.416;2023-08-12T09:55:08;1.60;1.00;0.40
20157;PMS5003;10239;56.820;24.416;2023-08-12T09:57:38;0.00;0.00;0.00
20157;PMS5003;10239;56.820;24.416;2023-08-12T10:00:09;1.80;1.20;0.00
20157;PMS5003;10239;56.820;24.416;2023-08-12T10:02:44;0.20;0.20;0.00
20157;PMS5003;10239;56.820;24.416;2023-08-12T10:05:18;1.80;1.20;0.40
20157;PMS5003;10239;56.820;24.416;2023-08-12T10:07:53;0.40;0.40;0.00
20157;PMS5003;10239;56.820;24.416;2023-08-12T10:10:21;1.00;1.00;0.00
20157;PMS5003;10239;56.820;24.416;2023-08-12T10:12:49;3.20;1.40;1.00
20157;PMS5003;10239;56.820;24.416;2023-08-12T10:15:17;0.60;0.60;0.40
20157;PMS5003;10239;56.820;24.416;2023-08-12T10:17:46;1.00;1.00;0.00
20157;PMS5003;10239;56.820;24.416;2023-08-12T10:20:15;0.20;0.20;0.00
20157;PMS5003;10239;56.820;24.416;2023-08-12T10:22:48;0.00;0.00;0.00
20157;PMS5003;10239;56.820;24.416;2023-08-12T10:25:20;1.80;1.80;0.20
20157;PMS5003;10239;56.820;24.416;2023-08-12T10:27:51;0.00;0.00;0.00
20157;PMS5003;10239;56.820;24.416;2023-08-12T10:30:20;1.80;0.40;0.00
20157;PMS5003;10239;56.820;24.416;2023-08-12T10:32:47;0.80;0.80;0.00
20157;PMS5003;10239;56.820;24.416;2023-08-12T10:35:16;2.00;0.00;0.00
20157;PMS5003;10239;56.820;24.416;2023-08-12T10:37:47;1.80;1.00;0.00
20157;PMS5003;10239;56.820;24.416;2023-08-12T10:40:21;0.40;0.00;0.00
20157;PMS5003;10239;56.820;24.416;2023-08-12T10:42:50;2.00;0.00;0.00
20157;PMS5003;10239;56.820;24.416;2023-08-12T10:45:18;3.00;2.00;0.00
20157;PMS5003;10239;56.820;24.416;2023-08-12T10:47:52;0.00;0.00;0.00
20157;PMS5003;10239;56.820;24.416;2023-08-12T10:50:43;1.00;1.00;0.00
20157;PMS5003;10239;56.820;24.416;2023-08-12T10:53:34;1.00;1.00;0.40
20157;PMS5003;10239;56.820;24.416;2023-08-12T10:56:03;1.00;1.00;0.00
20157;PMS5003;10239;56.820;24.416;2023-08-12T10:58:35;1.00;1.00;0.00
20157;PMS5003;10239;56.820;24.416;2023-08-12T11:01:03;0.80;0.80;0.80
20157;PMS5003;10239;56.820;24.416;2023-08-12T11:03:42;1.00;1.00;0.00
20157;PMS5003;10239;56.820;24.416;2023-08-12T11:06:11;1.00;1.00;0.00
20157;PMS5003;10239;56.820;24.416;2023-08-12T11:08:46;2.20;2.00;1.00
20157;PMS5003;10239;56.820;24.416;2023-08-12T11:11:24;1.00;1.00;0.40
20157;PMS5003;10239;56.820;24.416;2023-08-12T11:13:54;0.00;0.00;0.00
20157;PMS5003;10239;56.820;24.416;2023-08-12T11:16:58;1.00;1.00;0.60
20157;PMS5003;10239;56.820;24.416;2023-08-12T11:19:19;0.40;0.40;0.00
20157;PMS5003;10239;56.820;24.416;2023-08-12T11:21:48;2.20;0.60;0.00
20157;PMS5003;10239;56.820;24.416;2023-08-12T11:24:18;0.60;0.60;0.00
20157;PMS5003;10239;56.820;24.416;2023-08-12T11:26:46;1.00;1.00;0.00
20157;PMS5003;10239;56.820;24.416;2023-08-12T11:29:15;0.00;0.00;0.00
20157;PMS5003;10239;56.820;24.416;2023-08-12T11:31:44;1.00;1.00;0.00
20157;PMS5003;10239;56.820;24.416;2023-08-12T11:34:13;1.20;1.20;0.00
20157;PMS5003;10239;56.820;24.416;2023-08-12T11:36:42;0.60;0.60;0.00
20157;PMS5003;10239;56.820;24.416;2023-08-12T11:39:10;0.00;0.00;0.00
20157;PMS5003;10239;56.820;24.416;2023-08-12T11:41:37;1.20;0.40;0.00
20157;PMS5003;10239;56.820;24.416;2023-08-12T11:44:05;1.00;1.00;0.00
20157;PMS5003;10239;56.820;24.416;2023-08-12T11:46:33;1.60;1.60;1.00
20157;PMS5003;10239;56.820;24.416;2023-08-12T11:49:01;0.20;0.20;0.00
20157;PMS5003;10239;56.820;24.416;2023-08-12T11:51:28;2.40;1.40;0.00
20157;PMS5003;10239;56.820;24.416;2023-08-12T11:53:56;2.00;2.00;1.00
20157;PMS5003;10239;56.820;24.416;2023-08-12T11:56:24;1.00;1.00;0.00
20157;PMS5003;10239;56.820;24.416;2023-08-12T11:58:52;0.80;0.00;0.00
20157;PMS5003;10239;56.820;24.416;2023-08-12T12:01:21;2.80;1.40;0.60
20157;PMS5003;10239;56.820;24.416;2023-08-12T12:03:51;1.00;1.00;0.00
20157;PMS5003;10239;56.820;24.416;2023-08-12T12:06:33;0.80;0.40;0.00
20157;PMS5003;10239;56.820;24.416;2023-08-12T12:09:04;1.20;1.20;0.80
20157;PMS5003;10239;56.820;24.416;2023-08-12T12:11:37;3.80;2.40;0.80
20157;PMS5003;10239;56.820;24.416;2023-08-12T12:14:06;2.00;1.60;0.60
20157;PMS5003;10239;56.820;24.416;2023-08-12T12:16:36;1.00;1.00;0.00
20157;PMS5003;10239;56.820;24.416;2023-08-12T12:19:05;0.80;0.80;0.60
20157;PMS5003;10239;56.820;24.416;2023-08-12T12:21:39;2.80;1.00;1.00
20157;PMS5003;10239;56.820;24.416;2023-08-12T12:24:08;1.00;1.00;0.00
20157;PMS5003;10239;56.820;24.416;2023-08-12T12:26:36;1.60;1.00;1.00
20157;PMS5003;10239;56.820;24.416;2023-08-12T12:29:05;2.00;2.00;1.00
20157;PMS5003;10239;56.820;24.416;2023-08-12T12:31:33;2.40;2.00;1.00
20157;PMS5003;10239;56.820;24.416;2023-08-12T12:34:03;2.40;1.40;0.00
20157;PMS5003;10239;56.820;24.416;2023-08-12T12:36:32;1.80;1.80;0.80
20157;PMS5003;10239;56.820;24.416;2023-08-12T12:39:02;0.00;0.00;0.00
20157;PMS5003;10239;56.820;24.416;2023-08-12T12:41:31;2.20;2.00;1.00
20157;PMS5003;10239;56.820;24.416;2023-08-12T12:44:00;2.80;2.80;1.00
20157;PMS5003;10239;56.820;24.416;2023-08-12T12:46:29;2.20;2.20;1.40
20157;PMS5003;10239;56.820;24.416;2023-08-12T12:48:57;2.20;2.00;1.00
20157;PMS5003;10239;56.820;24.416;2023-08-12T12:51:25;2.00;2.00;1.00
20157;PMS5003;10239;56.820;24.416;2023-08-12T12:53:53;2.80;2.00;0.80
20157;PMS5003;10239;56.820;24.416;2023-08-12T12:56:20;2.40;2.40;1.00
20157;PMS5003;10239;56.820;24.416;2023-08-12T12:58:48;2.00;2.00;0.80
20157;PMS5003;10239;56.820;24.416;2023-08-12T13:01:16;1.40;1.40;1.20
20157;PMS5003;10239;56.820;24.416;2023-08-12T13:03:44;2.60;2.40;1.00
20157;PMS5003;10239;56.820;24.416;2023-08-12T13:06:12;2.00;2.00;1.00
20157;PMS5003;10239;56.820;24.416;2023-08-12T13:08:40;2.20;2.20;1.60
20157;PMS5003;10239;56.820;24.416;2023-08-12T13:11:08;3.20;2.00;1.00
20157;PMS5003;10239;56.820;24.416;2023-08-12T13:13:35;1.80;1.80;1.00
20157;PMS5003;10239;56.820;24.416;2023-08-12T13:16:03;2.40;2.40;2.00
20157;PMS5003;10239;56.820;24.416;2023-08-12T13:18:34;2.60;1.80;1.00
20157;PMS5003;10239;56.820;24.416;2023-08-12T13:21:02;1.60;1.60;0.00
20157;PMS5003;10239;56.820;24.416;2023-08-12T13:23:29;1.40;1.40;1.00
20157;PMS5003;10239;56.820;24.416;2023-08-12T13:25:57;2.40;2.40;0.80
20157;PMS5003;10239;56.820;24.416;2023-08-12T13:28:25;2.60;2.60;1.00
20157;PMS5003;10239;56.820;24.416;2023-08-12T13:30:52;2.00;2.00;1.00
20157;PMS5003;10239;56.820;24.416;2023-08-12T13:33:20;4.00;2.40;1.40
20157;PMS5003;10239;56.820;24.416;2023-08-12T13:35:48;2.60;1.80;1.00
20157;PMS5003;10239;56.820;24.416;2023-08-12T13:38:16;2.00;2.00;1.00
20157;PMS5003;10239;56.820;24.416;2023-08-12T13:40:44;2.20;2.00;1.00
20157;PMS5003;10239;56.820;24.416;2023-08-12T13:43:11;2.00;2.00;1.00
20157;PMS5003;10239;56.820;24.416;2023-08-12T13:45:39;4.00;2.00;2.00
20157;PMS5003;10239;56.820;24.416;2023-08-12T13:48:07;1.60;1.60;1.00
20157;PMS5003;10239;56.820;24.416;2023-08-12T13:50:34;1.40;1.40;0.00
20157;PMS5003;10239;56.820;24.416;2023-08-12T13:53:03;2.40;2.40;1.00
20157;PMS5003;10239;56.820;24.416;2023-08-12T13:55:31;2.00;2.00;0.80
20157;PMS5003;10239;56.820;24.416;2023-08-12T13:57:59;2.80;1.80;1.00
20157;PMS5003;10239;56.820;24.416;2023-08-12T14:00:27;1.00;1.00;0.00
20157;PMS5003;10239;56.820;24.416;2023-08-12T14:02:54;0.60;0.60;0.00
20157;PMS5003;10239;56.820;24.416;2023-08-12T14:05:22;1.20;1.20;0.00
20157;PMS5003;10239;56.820;24.416;2023-08-12T14:07:50;3.40;1.20;0.40
20157;PMS5003;10239;56.820;24.416;2023-08-12T14:10:17;2.00;2.00;0.80
20157;PMS5003;10239;56.820;24.416;2023-08-12T14:12:54;4.00;2.00;1.00
20157;PMS5003;10239;56.820;24.416;2023-08-12T14:15:21;2.80;2.60;0.60
20157;PMS5003;10239;56.820;24.416;2023-08-12T14:17:50;3.40;2.00;0.40
20157;PMS5003;10239;56.820;24.416;2023-08-12T14:20:17;1.00;1.00;0.40
20157;PMS5003;10239;56.820;24.416;2023-08-12T14:22:45;1.00;1.00;0.00
20157;PMS5003;10239;56.820;24.416;2023-08-12T14:25:13;3.00;3.00;1.20
20157;PMS5003;10239;56.820;24.416;2023-08-12T14:27:41;5.00;3.00;1.00